Time;durP1;ratioP1;P1;durP2;ratioP2;P2;SDS_P1;SDS_P2;PMS_P1;PMS_P2;Temp;Humidity;BMP_temperature;BMP_pressure;BME280_temperature;BME280_humidity;BME280_pressure;Samples;Min_cycle;Max_cycle;Signal;HPM_P1;HPM_P2
2021/10/12 00:00:53;;;;;;;41.88;19.50;;;;;;;7.69;81.87;100770.06;1673530;85;26145;-66
2021/10/12 00:03:20;;;;;;;35.95;18.65;;;;;;;7.67;81.97;100776.36;1673440;85;25630;-65
2021/10/12 00:05:46;;;;;;;38.80;19.70;;;;;;;7.64;81.98;100767.98;1673550;85;29563;-65
2021/10/12 00:08:13;;;;;;;38.35;19.20;;;;;;;7.63;82.07;100773.37;1673287;85;25669;-65
2021/10/12 00:10:38;;;;;;;41.48;20.72;;;;;;;7.62;82.22;100774.28;1673348;85;25748;-65
2021/10/12 00:13:05;;;;;;;42.80;21.20;;;;;;;7.59;82.08;100773.91;1673949;85;26722;-65
2021/10/12 00:15:30;;;;;;;38.20;19.75;;;;;;;7.63;82.37;100781.37;1673695;85;25738;-65
2021/10/12 00:17:56;;;;;;;41.30;21.25;;;;;;;7.60;82.31;100770.79;1673510;85;29518;-65
2021/10/12 00:20:22;;;;;;;43.52;20.50;;;;;;;7.61;82.37;100767.20;1673457;85;25683;-65
2021/10/12 00:22:48;;;;;;;41.48;20.50;;;;;;;7.62;82.33;100765.83;1673424;85;25681;-65
2021/10/12 00:25:14;;;;;;;42.80;20.32;;;;;;;7.61;82.34;100759.20;1673353;84;25976;-65
2021/10/12 00:27:40;;;;;;;50.10;21.45;;;;;;;7.64;82.50;100764.45;1673404;85;25892;-65
2021/10/12 00:30:07;;;;;;;42.93;21.02;;;;;;;7.66;82.62;100762.61;1673368;85;27464;-65
2021/10/12 00:32:34;;;;;;;41.70;20.25;;;;;;;7.68;82.60;100760.77;1673654;84;25649;-65
2021/10/12 00:35:00;;;;;;;35.58;18.27;;;;;;;7.69;82.60;100755.84;1673639;85;25625;-65
2021/10/12 00:37:26;;;;;;;35.50;19.42;;;;;;;7.68;82.58;100758.09;1673510;85;26062;-65
2021/10/12 00:39:52;;;;;;;32.93;17.65;;;;;;;7.69;82.65;100755.84;1673608;85;25721;-65
2021/10/12 00:42:18;;;;;;;37.58;17.87;;;;;;;7.70;82.69;100747.80;1673647;85;28149;-65
2021/10/12 00:44:45;;;;;;;39.05;18.62;;;;;;;7.73;82.72;100750.38;1673741;85;25722;-65
2021/10/12 00:47:12;;;;;;;39.13;19.12;;;;;;;7.77;82.78;100757.83;1673492;85;25191;-64
2021/10/12 00:49:38;;;;;;;35.48;17.62;;;;;;;7.78;82.75;100755.11;1673324;85;26042;-65
2021/10/12 00:52:04;;;;;;;37.25;16.87;;;;;;;7.80;82.73;100757.23;1673643;85;25609;-65
2021/10/12 00:54:31;;;;;;;37.85;15.45;;;;;;;7.79;82.71;100750.19;1673604;85;29573;-65
2021/10/12 00:56:57;;;;;;;35.80;16.07;;;;;;;7.78;82.71;100744.90;1673910;85;25785;-65
2021/10/12 00:59:23;;;;;;;36.88;16.70;;;;;;;7.78;82.71;100744.90;1673756;85;25657;-65
2021/10/12 01:01:49;;;;;;;25.72;13.65;;;;;;;7.78;82.74;100735.56;1673830;85;26344;-65
2021/10/12 01:04:15;;;;;;;28.32;14.73;;;;;;;7.78;82.74;100736.89;1673442;85;25713;-65
2021/10/12 01:06:41;;;;;;;25.48;13.98;;;;;;;7.77;82.77;100729.34;1673355;85;27407;-65
2021/10/12 01:09:07;;;;;;;32.60;15.20;;;;;;;7.76;82.85;100727.60;1673180;85;25738;-65
2021/10/12 01:11:34;;;;;;;31.57;15.72;;;;;;;7.76;82.95;100719.59;1673922;85;25741;-64
2021/10/12 01:14:02;;;;;;;34.18;15.60;;;;;;;7.76;83.07;100720.06;1673857;85;26039;-64
2021/10/12 01:16:28;;;;;;;35.83;15.00;;;;;;;7.75;83.11;100726.31;1673967;85;25587;-64
2021/10/12 01:18:59;;;;;;;29.20;12.88;;;;;;;7.74;83.13;100728.11;1673554;85;25778;-64
2021/10/12 01:21:29;;;;;;;23.87;11.83;;;;;;;7.74;83.14;100722.77;1673149;85;25984;-64
2021/10/12 01:23:55;;;;;;;28.30;12.35;;;;;;;7.75;83.33;100718.31;1674253;85;25674;-64
2021/10/12 01:26:22;;;;;;;30.17;11.35;;;;;;;7.76;83.33;100716.93;1673269;84;26094;-65
2021/10/12 01:28:49;;;;;;;22.75;10.82;;;;;;;7.77;83.43;100717.80;1674004;85;25705;-65
2021/10/12 01:31:26;;;;;;;21.23;11.03;;;;;;;7.75;83.54;100715.19;1673479;85;27414;-65
2021/10/12 01:33:53;;;;;;;22.02;10.58;;;;;;;7.72;83.46;100708.61;1673172;84;25681;-64
2021/10/12 01:36:20;;;;;;;21.17;11.88;;;;;;;7.72;83.50;100707.73;1673830;85;25717;-64
2021/10/12 01:38:47;;;;;;;23.80;10.98;;;;;;;7.72;83.76;100710.40;1673787;85;26013;-64
2021/10/12 01:41:15;;;;;;;24.45;10.80;;;;;;;7.71;83.86;100721.53;1673776;85;25928;-64
2021/10/12 01:43:41;;;;;;;18.87;9.28;;;;;;;7.70;83.84;100705.11;1673874;85;27446;-64
2021/10/12 01:48:49;;;;;;;21.93;9.65;;;;;;;7.75;84.10;100704.51;1868364;76;25473;-65
2021/10/12 01:51:14;;;;;;;16.15;9.03;;;;;;;7.71;84.10;100700.65;1756845;81;26056;-64
2021/10/12 01:53:41;;;;;;;20.12;9.05;;;;;;;7.69;84.19;100700.70;1756691;81;27352;-64
2021/10/12 01:56:07;;;;;;;20.00;9.23;;;;;;;7.70;84.37;100697.56;1756881;81;26008;-64
2021/10/12 01:58:33;;;;;;;20.25;8.48;;;;;;;7.68;84.32;100694.95;1756802;81;25962;-64
2021/10/12 02:00:59;;;;;;;25.85;9.43;;;;;;;7.68;84.23;100691.41;1756828;81;25968;-64
2021/10/12 02:03:25;;;;;;;20.20;8.63;;;;;;;7.67;84.23;100690.99;1756989;81;25728;-64
2021/10/12 02:05:51;;;;;;;19.42;8.48;;;;;;;7.67;84.29;100686.98;1756842;81;27414;-64
2021/10/12 02:08:17;;;;;;;14.93;9.03;;;;;;;7.66;84.31;100686.58;1756532;81;26243;-64
2021/10/12 02:10:43;;;;;;;14.30;7.42;;;;;;;7.64;84.37;100684.41;1756804;81;25959;-64
2021/10/12 02:13:09;;;;;;;21.07;8.25;;;;;;;7.64;84.40;100683.08;1756752;81;27311;-64
2021/10/12 02:15:35;;;;;;;19.25;7.55;;;;;;;7.64;84.43;100681.75;1756714;81;25681;-64
2021/10/12 02:18:01;;;;;;;21.68;8.13;;;;;;;7.65;84.44;100683.50;1757045;81;27354;-64
2021/10/12 02:20:27;;;;;;;18.48;7.12;;;;;;;7.65;84.48;100675.49;1756568;81;25748;-64
2021/10/12 02:22:53;;;;;;;16.42;7.33;;;;;;;7.66;84.46;100687.45;1756690;81;25666;-63
2021/10/12 02:25:19;;;;;;;16.95;7.55;;;;;;;7.62;84.42;100667.58;1755589;81;25722;-65
2021/10/12 02:27:45;;;;;;;17.07;6.20;;;;;;;7.66;84.43;100681.24;1777169;80;25978;-64
2021/10/12 02:30:13;;;;;;;21.37;7.55;;;;;;;7.67;84.61;100666.98;1757220;81;28119;-64
2021/10/12 02:32:39;;;;;;;14.30;5.67;;;;;;;7.64;84.52;100665.28;1756867;81;27344;-64
2021/10/12 02:35:07;;;;;;;19.50;6.55;;;;;;;7.66;84.53;100678.57;1756964;81;25981;-64
2021/10/12 02:37:32;;;;;;;15.38;5.75;;;;;;;7.64;84.51;100675.08;1757049;81;25697;-64
2021/10/12 02:39:58;;;;;;;19.92;5.62;;;;;;;7.62;84.44;100660.91;1757056;81;25946;-64
2021/10/12 02:42:25;;;;;;;17.73;6.03;;;;;;;7.63;84.51;100665.33;1757070;81;27381;-64
2021/10/12 02:44:51;;;;;;;13.75;5.15;;;;;;;7.60;84.39;100665.42;1756806;81;25765;-64
2021/10/12 02:47:17;;;;;;;13.93;5.70;;;;;;;7.60;84.43;100677.42;1757417;79;26119;-64
2021/10/12 02:49:43;;;;;;;21.93;7.03;;;;;;;7.55;84.39;100654.89;1759936;81;27230;-64
2021/10/12 02:52:09;;;;;;;19.23;5.17;;;;;;;7.58;84.35;100659.27;1759828;81;25733;-64
2021/10/12 02:54:34;;;;;;;16.57;5.78;;;;;;;7.54;84.29;100657.61;1759787;81;27453;-64
2021/10/12 02:57:00;;;;;;;14.18;5.03;;;;;;;7.52;84.31;100658.99;1759615;81;25926;-64
2021/10/12 02:59:26;;;;;;;14.30;5.58;;;;;;;7.49;84.29;100665.75;1759401;81;25619;-64
2021/10/12 03:01:52;;;;;;;17.05;7.03;;;;;;;7.47;84.38;100662.26;1759531;81;25981;-65
2021/10/12 03:04:18;;;;;;;8.85;4.58;;;;;;;7.42;84.32;100667.73;1759852;81;25591;-64
2021/10/12 03:06:43;;;;;;;15.48;4.78;;;;;;;7.37;84.31;100660.33;1759407;81;28341;-65
2021/10/12 03:09:09;;;;;;;12.05;4.72;;;;;;;7.33;84.30;100666.67;1759178;81;27238;-65
2021/10/12 03:11:35;;;;;;;12.40;4.58;;;;;;;7.30;84.30;100669.89;1759262;81;25741;-64
2021/10/12 03:14:01;;;;;;;14.00;4.95;;;;;;;7.25;84.32;100663.36;1759149;81;25698;-64
2021/10/12 03:16:28;;;;;;;12.70;4.17;;;;;;;7.22;84.31;100658.58;1759341;81;25716;-65
2021/10/12 03:18:54;;;;;;;13.83;4.50;;;;;;;7.18;84.31;100656.46;1759064;81;27450;-64
2021/10/12 03:21:21;;;;;;;7.42;4.90;;;;;;;7.14;84.34;100656.13;1758960;81;25781;-65
2021/10/12 03:23:47;;;;;;;12.73;4.45;;;;;;;7.11;84.34;100650.89;1759115;81;25597;-64
2021/10/12 03:26:13;;;;;;;18.90;5.47;;;;;;;7.08;84.31;100656.31;1759134;81;25755;-64
2021/10/12 03:28:39;;;;;;;15.58;4.08;;;;;;;7.05;84.39;100645.73;1759708;81;25639;-64
2021/10/12 03:31:04;;;;;;;11.73;4.08;;;;;;;7.01;84.35;100646.28;1759246;81;27527;-67
2021/10/12 03:33:30;;;;;;;13.93;5.20;;;;;;;6.97;84.42;100644.63;1758968;81;25961;-65
2021/10/12 03:35:58;;;;;;;13.80;5.35;;;;;;;6.94;84.40;100640.72;1759476;81;25996;-65
2021/10/12 03:38:26;;;;;;;10.18;4.95;;;;;;;6.91;84.40;100651.92;1758996;81;25707;-65
2021/10/12 03:40:54;;;;;;;17.80;4.83;;;;;;;6.89;84.33;100632.44;1759056;81;25635;-65
2021/10/12 03:43:21;;;;;;;14.35;5.33;;;;;;;6.87;84.38;100640.47;1759082;81;27506;-65
2021/10/12 03:45:46;;;;;;;22.32;5.58;;;;;;;6.84;84.35;100635.23;1759168;81;25962;-65
2021/10/12 03:48:12;;;;;;;9.38;4.90;;;;;;;6.82;84.29;100623.29;1758334;81;25679;-65
2021/10/12 03:50:39;;;;;;;17.23;5.12;;;;;;;6.81;84.33;100628.20;1757094;81;25695;-65
2021/10/12 03:53:06;;;;;;;14.98;5.97;;;;;;;6.79;84.39;100624.70;1757169;81;25697;-65
2021/10/12 03:55:31;;;;;;;10.30;4.75;;;;;;;6.76;84.26;100622.59;1757225;81;28220;-65
2021/10/12 03:57:57;;;;;;;16.07;5.17;;;;;;;6.74;84.44;100629.28;1756972;81;26278;-64
2021/10/12 04:00:24;;;;;;;20.50;5.53;;;;;;;6.72;84.41;100622.25;1757113;81;25982;-66
2021/10/12 04:02:49;;;;;;;13.75;4.50;;;;;;;6.71;84.42;100624.50;1757610;81;25600;-65
2021/10/12 04:05:15;;;;;;;19.65;5.72;;;;;;;6.71;84.39;100621.84;1757078;81;25746;-65
2021/10/12 04:07:42;;;;;;;15.40;4.83;;;;;;;6.71;84.35;100612.06;1756897;81;27506;-64
2021/10/12 04:10:09;;;;;;;18.85;4.62;;;;;;;6.69;84.33;100613.89;1756893;81;25687;-67
2021/10/12 04:12:35;;;;;;;9.98;3.95;;;;;;;6.70;84.27;100610.31;1757004;81;25928;-66
2021/10/12 04:15:01;;;;;;;14.60;4.53;;;;;;;6.70;84.30;100618.77;1756895;81;27223;-65
2021/10/12 04:17:26;;;;;;;15.78;4.72;;;;;;;6.69;84.33;100614.35;1731162;81;26099;-65
2021/10/12 04:19:52;;;;;;;14.70;5.45;;;;;;;6.71;84.33;100618.72;1757264;81;27402;-66
2021/10/12 04:22:18;;;;;;;15.90;5.95;;;;;;;6.72;84.34;100628.45;1756800;81;25628;-66
2021/10/12 04:24:45;;;;;;;17.70;6.60;;;;;;;6.74;84.35;100611.97;1757014;81;25710;-67
2021/10/12 04:27:11;;;;;;;23.27;7.20;;;;;;;6.75;84.31;100609.73;1757475;81;25683;-67
2021/10/12 04:29:37;;;;;;;19.12;7.30;;;;;;;6.77;84.34;100603.89;1757089;81;25694;-68
2021/10/12 04:32:06;;;;;;;14.13;6.85;;;;;;;6.78;84.27;100607.44;1757595;81;27475;-68
2021/10/12 04:34:32;;;;;;;22.52;7.35;;;;;;;6.79;84.30;100614.05;1731642;81;26051;-68
2021/10/12 04:36:58;;;;;;;23.20;7.50;;;;;;;6.80;84.40;100609.14;1756900;81;25790;-67
2021/10/12 04:39:24;;;;;;;15.65;6.58;;;;;;;6.80;84.41;100606.47;1757278;81;25639;-67
2021/10/12 04:41:51;;;;;;;13.90;5.62;;;;;;;6.79;84.45;100602.06;1756969;81;25658;-67
2021/10/12 04:44:17;;;;;;;14.95;6.28;;;;;;;6.77;84.37;100597.70;1757182;81;28242;-68
2021/10/12 04:46:44;;;;;;;24.07;6.47;;;;;;;6.77;84.41;100592.37;1757330;81;25718;-66
2021/10/12 04:49:09;;;;;;;15.18;5.65;;;;;;;6.78;84.41;100598.11;1756101;81;25655;-66
2021/10/12 04:51:35;;;;;;;18.65;5.97;;;;;;;6.79;84.39;100601.19;1756194;81;25869;-66
2021/10/12 04:54:02;;;;;;;15.53;5.85;;;;;;;6.78;84.39;100591.45;1756866;81;25564;-65
2021/10/12 04:56:29;;;;;;;19.42;5.47;;;;;;;6.77;84.40;100593.24;1756247;81;27372;-65
2021/10/12 04:58:55;;;;;;;20.85;7.00;;;;;;;6.77;84.40;100593.70;1756333;81;25604;-65
2021/10/12 05:01:21;;;;;;;19.23;8.55;;;;;;;6.76;84.39;100591.49;1755859;81;25667;-65
2021/10/12 05:03:47;;;;;;;16.60;7.53;;;;;;;6.76;84.41;100588.83;1756181;81;25704;-65
2021/10/12 05:06:13;;;;;;;20.37;8.83;;;;;;;6.74;84.33;100601.32;1756312;81;25734;-65
2021/10/12 05:08:39;;;;;;;20.85;11.95;;;;;;;6.73;84.36;100596.03;1756189;81;27532;-65
2021/10/12 05:11:05;;;;;;;24.75;10.28;;;;;;;6.70;84.38;100590.80;1776287;80;25653;-65
2021/10/12 05:13:31;;;;;;;21.37;9.85;;;;;;;6.69;84.38;100609.02;1775906;79;25655;-65
2021/10/12 05:15:59;;;;;;;43.28;11.28;;;;;;;6.66;84.41;100592.67;1756281;81;26084;-65
2021/10/12 05:18:30;;;;;;;26.95;10.95;;;;;;;6.64;84.42;100594.50;1770749;80;25877;-65
2021/10/12 05:20:52;;;;;;;29.05;10.82;;;;;;;6.64;84.33;100601.16;1780773;80;29522;-65
2021/10/12 05:23:19;;;;;;;27.42;10.32;;;;;;;6.64;84.36;100598.95;1782261;80;25602;-65
2021/10/12 05:25:49;;;;;;;25.48;11.85;;;;;;;6.64;84.37;100605.61;1782018;80;25904;-66
2021/10/12 05:28:17;;;;;;;24.90;11.95;;;;;;;6.62;84.30;100614.98;1782312;80;25642;-66
2021/10/12 05:30:44;;;;;;;26.30;11.35;;;;;;;6.63;84.47;100609.20;1782275;80;25622;-67
2021/10/12 05:33:16;;;;;;;34.33;12.15;;;;;;;6.60;84.46;100610.61;1781729;80;29630;-66
2021/10/12 05:35:43;;;;;;;33.45;12.20;;;;;;;6.58;84.42;100607.12;1782492;80;26013;-65
2021/10/12 05:38:09;;;;;;;32.10;13.25;;;;;;;6.59;84.54;100606.20;1782065;80;25887;-66
2021/10/12 05:40:36;;;;;;;27.25;13.08;;;;;;;6.59;84.53;100605.74;1781739;80;27176;-66
2021/10/12 05:43:02;;;;;;;30.55;10.45;;;;;;;6.60;84.56;100591.52;1781779;80;25975;-66
2021/10/12 05:45:28;;;;;;;21.85;10.20;;;;;;;6.61;84.51;100587.93;1781703;80;27392;-66
2021/10/12 05:47:54;;;;;;;21.97;9.93;;;;;;;6.62;84.60;100584.81;1782447;80;25811;-64
2021/10/12 05:50:19;;;;;;;26.25;9.25;;;;;;;6.62;84.64;100585.69;1759421;81;25751;-67
2021/10/12 05:53:01;;;;;;;24.63;9.13;;;;;;;6.62;84.56;100577.70;1759737;81;25928;-67
2021/10/12 05:55:29;;;;;;;21.70;8.95;;;;;;;6.66;84.60;100583.34;1755812;81;25994;-65
2021/10/12 05:58:06;;;;;;;18.82;8.43;;;;;;;6.69;84.64;100588.59;1758079;81;27138;-66
2021/10/12 06:00:21;;;;;;;17.40;8.33;;;;;;;6.71;84.65;100593.41;1756710;81;26160;-66
2021/10/12 06:02:47;;;;;;;23.30;8.28;;;;;;;6.73;84.67;100596.03;1758731;81;25721;-66
2021/10/12 06:05:13;;;;;;;15.13;8.55;;;;;;;6.74;84.60;100595.99;1760254;81;25528;-65
2021/10/12 06:07:39;;;;;;;19.85;7.28;;;;;;;6.78;84.59;100593.66;1760717;81;25595;-66
2021/10/12 06:10:06;;;;;;;19.95;7.22;;;;;;;6.81;84.56;100596.69;1760840;81;27630;-67
2021/10/12 06:12:31;;;;;;;30.10;8.18;;;;;;;6.84;84.55;100585.48;1760325;81;25735;-66
2021/10/12 06:14:57;;;;;;;19.30;7.40;;;;;;;6.88;84.50;100579.61;1760686;81;25548;-64
2021/10/12 06:17:23;;;;;;;15.53;6.83;;;;;;;6.94;84.48;100586.55;1759259;81;25890;-65
2021/10/12 06:19:49;;;;;;;25.23;8.38;;;;;;;6.97;84.43;100593.13;1758874;81;25981;-65
2021/10/12 06:22:15;;;;;;;26.25;8.50;;;;;;;7.00;84.41;100590.37;1758788;81;29513;-65
2021/10/12 06:24:41;;;;;;;19.25;8.13;;;;;;;7.02;84.36;100589.41;1759053;81;25645;-65
2021/10/12 06:27:06;;;;;;;22.17;8.08;;;;;;;7.05;84.30;100599.09;1759134;81;25738;-64
2021/10/12 06:29:32;;;;;;;22.58;7.40;;;;;;;7.06;84.22;100593.72;1759536;81;25700;-64
2021/10/12 06:31:58;;;;;;;24.80;7.85;;;;;;;7.11;84.23;100589.59;1759213;81;25632;-65
2021/10/12 06:34:24;;;;;;;25.12;8.30;;;;;;;7.12;84.16;100594.00;1759047;81;27459;-65
2021/10/12 06:36:51;;;;;;;19.48;7.67;;;;;;;7.14;84.08;100583.70;1759482;81;25749;-65
2021/10/12 06:39:17;;;;;;;16.55;6.90;;;;;;;7.19;84.03;100587.56;1759362;81;26036;-65
2021/10/12 06:41:42;;;;;;;11.05;5.17;;;;;;;7.24;84.00;100580.30;1759548;81;26063;-65
2021/10/12 06:44:09;;;;;;;20.88;6.83;;;;;;;7.28;83.93;100575.29;1759430;81;26011;-69
2021/10/12 06:46:35;;;;;;;19.17;6.40;;;;;;;7.32;83.91;100582.27;1759536;81;27768;-67
2021/10/12 06:49:00;;;;;;;18.02;6.53;;;;;;;7.36;83.82;100584.38;1757883;81;25651;-66
2021/10/12 06:51:26;;;;;;;11.70;6.55;;;;;;;7.39;83.74;100592.28;1756901;81;25686;-69
2021/10/12 06:53:52;;;;;;;21.12;6.87;;;;;;;7.43;83.71;100592.61;1756877;81;25660;-69
2021/10/12 06:56:18;;;;;;;16.37;6.30;;;;;;;7.45;83.66;100592.09;1756711;81;25877;-73
2021/10/12 06:58:44;;;;;;;16.75;6.08;;;;;;;7.49;83.57;100585.28;1756501;81;27397;-70
2021/10/12 07:01:10;;;;;;;23.45;6.45;;;;;;;7.52;83.53;100587.44;1756743;81;25672;-69
2021/10/12 07:03:36;;;;;;;13.88;6.17;;;;;;;7.58;83.46;100586.78;1756450;81;26009;-71
2021/10/12 07:06:02;;;;;;;20.17;6.00;;;;;;;7.66;83.40;100585.20;1756693;81;25921;-70
2021/10/12 07:08:28;;;;;;;23.95;7.10;;;;;;;7.73;83.32;100581.42;1756661;81;25711;-69
2021/10/12 07:10:55;;;;;;;13.10;5.90;;;;;;;7.79;83.23;100569.20;1736350;80;27386;-69
2021/10/12 07:13:28;;;;;;;16.80;7.20;;;;;;;7.87;83.17;100559.12;1753672;80;25883;-68
2021/10/12 07:15:51;;;;;;;25.45;7.03;;;;;;;7.93;83.10;100557.58;1737700;80;25807;-70
2021/10/12 07:18:18;;;;;;;16.97;6.35;;;;;;;7.97;82.97;100552.55;1751425;80;26267;-69
2021/10/12 07:20:44;;;;;;;14.03;6.47;;;;;;;8.04;82.92;100558.09;1752896;79;25843;-68
2021/10/12 07:23:09;;;;;;;14.98;6.53;;;;;;;8.05;82.83;100553.16;1741159;80;27496;-68
2021/10/12 07:25:35;;;;;;;11.43;5.45;;;;;;;8.07;82.79;100552.64;1764980;78;26645;-68
2021/10/12 07:28:01;;;;;;;16.82;6.62;;;;;;;8.11;82.66;100544.94;1750897;80;25719;-70
2021/10/12 07:30:27;;;;;;;14.65;5.80;;;;;;;8.12;82.52;100549.34;1754739;80;26189;-69
2021/10/12 07:32:53;;;;;;;21.20;5.67;;;;;;;8.17;82.49;100546.98;1764162;78;25872;-67
2021/10/12 07:35:18;;;;;;;13.83;5.47;;;;;;;8.21;82.42;100543.28;1745008;80;28095;-67
2021/10/12 07:37:44;;;;;;;15.38;6.20;;;;;;;8.23;82.23;100542.30;1742946;80;25789;-67
2021/10/12 07:40:12;;;;;;;19.20;6.10;;;;;;;8.29;82.24;100542.55;1768250;80;25777;-67
2021/10/12 07:42:39;;;;;;;14.95;5.50;;;;;;;8.36;82.09;100544.11;1756683;80;25764;-67
2021/10/12 07:45:06;;;;;;;17.15;6.67;;;;;;;8.43;82.08;100552.30;1763426;80;25772;-67
2021/10/12 07:47:32;;;;;;;16.48;6.37;;;;;;;8.48;81.92;100539.66;1759624;79;27459;-67
2021/10/12 07:49:58;;;;;;;13.10;5.80;;;;;;;8.50;81.82;100540.47;1752848;79;25771;-67
2021/10/12 07:52:24;;;;;;;14.58;6.22;;;;;;;8.55;81.76;100530.48;1748401;79;25738;-67
2021/10/12 07:55:11;;;;;;;18.60;6.12;;;;;;;8.59;81.62;100533.45;1763832;79;26386;-66
2021/10/12 07:57:21;;;;;;;16.90;6.58;;;;;;;8.62;81.19;100548.03;1755367;79;25743;-69
2021/10/12 07:59:46;;;;;;;20.23;6.45;;;;;;;8.65;81.37;100542.58;1749131;79;27414;-68
2021/10/12 08:02:13;;;;;;;20.80;6.83;;;;;;;8.73;81.28;100544.50;1771060;79;25720;-68
2021/10/12 08:04:43;;;;;;;20.48;6.92;;;;;;;8.78;81.14;100527.83;1756479;79;25903;-69
2021/10/12 08:07:10;;;;;;;17.93;7.00;;;;;;;8.86;81.05;100528.01;1766884;79;25767;-68
2021/10/12 08:09:37;;;;;;;19.90;6.72;;;;;;;8.95;81.08;100524.98;1766737;79;25751;-67
2021/10/12 08:12:04;;;;;;;22.22;12.75;;;;;;;8.96;80.87;100521.38;1774322;79;28148;-68
2021/10/12 08:14:33;;;;;;;38.88;22.13;;;;;;;8.93;80.69;100510.80;1773276;79;25785;-68
2021/10/12 08:16:59;;;;;;;39.75;27.87;;;;;;;8.91;80.71;100507.31;1765010;79;25738;-68
2021/10/12 08:19:24;;;;;;;36.25;18.55;;;;;;;8.93;80.71;100511.67;1777485;79;25828;-68
2021/10/12 08:21:50;;;;;;;19.27;9.08;;;;;;;8.97;80.59;100513.77;1773050;79;25778;-68
2021/10/12 08:24:20;;;;;;;13.90;6.15;;;;;;;8.94;80.47;100515.22;1775027;78;27478;-68
2021/10/12 08:26:44;;;;;;;12.70;5.85;;;;;;;8.89;80.27;100499.82;1770877;78;25712;-66
2021/10/12 08:29:10;;;;;;;18.82;6.03;;;;;;;8.87;80.20;100508.36;1745004;78;25749;-66
2021/10/12 08:31:35;;;;;;;15.00;5.70;;;;;;;8.83;80.12;100506.73;1744701;78;26410;-64
2021/10/12 08:34:01;;;;;;;13.13;5.67;;;;;;;8.81;80.11;100519.29;1748837;78;26099;-66
2021/10/12 08:36:27;;;;;;;14.75;6.30;;;;;;;8.70;79.89;100517.89;1748916;78;27503;-65
2021/10/12 08:38:56;;;;;;;11.03;5.60;;;;;;;8.59;79.81;100508.08;1755927;78;25819;-66
2021/10/12 08:41:25;;;;;;;15.18;5.10;;;;;;;8.46;79.85;100517.47;1758026;78;26546;-66
2021/10/12 08:43:54;;;;;;;18.85;6.33;;;;;;;8.32;79.87;100507.72;1769977;78;26178;-67
2021/10/12 08:46:20;;;;;;;12.50;5.62;;;;;;;8.16;79.86;100506.06;1760285;78;25743;-70
2021/10/12 08:48:46;;;;;;;18.92;7.03;;;;;;;8.00;79.99;100504.40;1765706;78;26848;-70
2021/10/12 08:51:12;;;;;;;23.12;7.75;;;;;;;7.89;80.08;100507.03;1757652;80;26416;-70
2021/10/12 08:53:37;;;;;;;11.55;4.65;;;;;;;7.85;80.32;100515.60;1748007;79;25856;-66
2021/10/12 08:56:06;;;;;;;6.47;3.40;;;;;;;7.78;80.43;100523.44;1753846;80;25795;-65
2021/10/12 08:58:32;;;;;;;5.87;2.40;;;;;;;7.63;80.56;100503.48;1761873;79;25876;-66
2021/10/12 09:01:10;;;;;;;5.75;2.87;;;;;;;7.50;80.73;100502.15;1771752;78;27404;-64
2021/10/12 09:06:30;;;;;;;2.98;2.35;;;;;;;7.31;80.98;100508.54;1781024;78;25299;-66
2021/10/12 09:09:04;;;;;;;7.40;3.12;;;;;;;7.22;81.11;100494.17;1764557;80;25796;-64
2021/10/12 09:11:34;;;;;;;9.35;3.00;;;;;;;7.19;81.30;100499.60;1756681;80;26547;-64
2021/10/12 09:14:04;;;;;;;6.75;2.77;;;;;;;7.21;81.36;100503.55;1737833;80;28298;-65
2021/10/12 09:16:37;;;;;;;4.92;2.80;;;;;;;7.18;81.34;100487.66;1788957;78;25855;-64
2021/10/12 09:19:13;;;;;;;6.67;3.72;;;;;;;7.13;81.44;100485.14;1782340;78;25898;-64
2021/10/12 09:21:44;;;;;;;5.92;3.15;;;;;;;7.10;81.54;100478.56;1786490;78;25744;-64
2021/10/12 09:24:20;;;;;;;;;;;;;;;7.08;81.54;100479.95;1769464;78;25736;-64
2021/10/12 09:26:57;;;;;;;9.73;3.85;;;;;;;7.10;81.73;100471.45;1746799;80;27463;-64
2021/10/12 09:29:34;;;;;;;9.13;5.17;;;;;;;7.19;81.78;100468.95;1749513;80;25856;-64
2021/10/12 09:31:58;;;;;;;11.20;4.80;;;;;;;7.30;81.79;100461.47;1787144;78;26361;-65
2021/10/12 09:34:28;;;;;;;11.93;5.67;;;;;;;7.41;81.82;100460.66;1755214;80;25821;-64
2021/10/12 09:36:53;;;;;;;17.50;7.28;;;;;;;7.55;81.92;100461.53;1757912;80;25577;-64
2021/10/12 09:39:38;;;;;;;19.12;8.73;;;;;;;7.65;81.88;100454.09;1776178;78;27417;-65
2021/10/12 09:42:10;;;;;;;25.88;10.10;;;;;;;7.73;82.06;100444.89;1758371;79;25840;-64
2021/10/12 09:44:40;;;;;;;20.72;8.63;;;;;;;7.86;82.06;100439.96;1782031;78;25849;-64
2021/10/12 09:47:10;;;;;;;25.70;8.38;;;;;;;7.96;82.20;100444.05;1778182;78;26080;-64
2021/10/12 09:49:37;;;;;;;17.00;7.10;;;;;;;8.08;82.19;100437.39;1780972;78;26134;-63
2021/10/12 09:52:17;;;;;;;13.25;5.92;;;;;;;8.18;82.26;100435.27;1788238;78;27428;-63
2021/10/12 09:54:52;;;;;;;12.57;5.40;;;;;;;8.21;82.14;100433.34;1773148;78;25881;-62
2021/10/12 09:57:22;;;;;;;7.05;4.55;;;;;;;8.17;82.17;100433.05;1758675;80;25764;-62
2021/10/12 09:59:49;;;;;;;14.75;5.15;;;;;;;8.12;82.24;100428.34;1753417;80;25815;-62
2021/10/12 10:02:24;;;;;;;16.40;6.70;;;;;;;8.12;82.38;100413.66;1761264;80;25756;-62
2021/10/12 10:04:53;;;;;;;11.18;5.00;;;;;;;8.15;82.39;100417.09;1756473;80;27459;-63
2021/10/12 10:07:32;;;;;;;8.58;3.95;;;;;;;8.16;82.40;100417.96;1765410;78;25679;-62
2021/10/12 10:10:02;;;;;;;7.15;4.22;;;;;;;8.11;82.42;100412.80;1775256;78;26441;-63
2021/10/12 10:12:28;;;;;;;11.28;4.95;;;;;;;8.10;82.49;100414.19;1788211;77;26511;-64
2021/10/12 10:14:54;;;;;;;14.40;4.03;;;;;;;8.07;82.51;100414.30;1733567;79;25815;-64
2021/10/12 10:17:21;;;;;;;6.03;3.50;;;;;;;8.06;82.71;100418.77;1763227;80;27431;-64
2021/10/12 10:19:49;;;;;;;6.20;3.80;;;;;;;8.03;82.68;100417.55;1748848;80;26532;-62
2021/10/12 10:22:41;;;;;;;9.70;4.28;;;;;;;8.00;82.71;100412.31;1754126;80;25732;-63
2021/10/12 10:25:32;;;;;;;9.08;4.92;;;;;;;8.01;82.80;100408.72;1772583;78;25691;-63
2021/10/12 10:28:21;;;;;;;;;;;;;;;7.99;82.84;100401.70;1752411;80;25910;-62
2021/10/12 10:30:58;;;;;;;16.62;6.20;;;;;;;8.06;83.04;100404.09;1779482;78;27486;-62
2021/10/12 10:33:34;;;;;;;16.37;7.12;;;;;;;8.14;83.16;100405.14;1756409;79;25738;-62
2021/10/12 10:36:03;;;;;;;16.37;8.68;;;;;;;8.20;82.99;100402.70;1777944;77;25829;-64
2021/10/12 10:38:33;;;;;;;32.98;20.10;;;;;;;8.25;83.14;100400.27;1780059;78;25726;-62
2021/10/12 10:41:11;;;;;;;21.17;14.18;;;;;;;8.33;83.19;100390.20;1776427;78;25777;-62
2021/10/12 10:43:54;;;;;;;13.13;7.05;;;;;;;8.36;83.10;100388.75;1756348;80;27400;-64
2021/10/12 10:46:36;;;;;;;15.00;6.90;;;;;;;8.40;83.20;100389.03;1770869;80;26114;-62
2021/10/12 10:49:25;;;;;;;11.05;6.67;;;;;;;8.41;83.16;100384.10;1752363;80;25869;-63
2021/10/12 10:52:04;;;;;;;10.13;5.55;;;;;;;8.43;83.23;100377.36;1759192;80;26013;-62
2021/10/12 10:54:48;;;;;;;9.25;4.28;;;;;;;8.41;83.37;100376.09;1747973;80;25748;-63
2021/10/12 10:57:20;;;;;;;10.80;3.87;;;;;;;8.32;83.30;100383.55;1749987;80;28083;-64
2021/10/12 10:59:47;;;;;;;8.70;4.00;;;;;;;8.22;83.46;100371.48;1750647;78;27129;-62
2021/10/12 11:02:36;;;;;;;6.37;4.85;;;;;;;8.18;83.57;100373.86;1758881;80;25811;-63
2021/10/12 11:05:02;;;;;;;7.42;5.00;;;;;;;8.18;83.83;100372.52;1755361;80;25686;-65
2021/10/12 11:07:29;;;;;;;7.28;4.65;;;;;;;8.20;83.84;100363.52;1749566;80;25896;-65
2021/10/12 11:09:57;;;;;;;15.20;7.25;;;;;;;8.30;83.95;100353.36;1752114;80;27458;-65
2021/10/12 11:12:28;;;;;;;4.92;3.87;;;;;;;8.40;84.07;100360.13;1753853;80;25769;-65
2021/10/12 11:15:07;;;;;;;18.20;6.15;;;;;;;8.36;83.92;100351.36;1758532;80;25746;-63
2021/10/12 11:17:35;;;;;;;12.30;5.12;;;;;;;8.33;83.99;100347.47;1777281;78;26452;-64
2021/10/12 11:20:12;;;;;;;7.42;3.83;;;;;;;8.33;84.12;100349.27;1746838;79;25667;-63
2021/10/12 11:22:42;;;;;;;5.37;3.17;;;;;;;8.33;84.09;100350.14;1761073;79;27356;-63
2021/10/12 11:25:09;;;;;;;3.80;1.95;;;;;;;8.33;84.28;100339.92;1752928;80;25762;-62
2021/10/12 11:27:45;;;;;;;2.05;1.42;;;;;;;8.25;84.24;100354.00;1746737;79;25706;-63
2021/10/12 11:30:14;;;;;;;4.10;1.98;;;;;;;8.14;84.08;100341.94;1782860;78;26179;-63
2021/10/12 11:32:41;;;;;;;9.63;2.22;;;;;;;8.18;84.17;100340.48;1757702;80;25804;-62